Time;durP1;ratioP1;P1;durP2;ratioP2;P2;SDS_P1;SDS_P2;PMS_P1;PMS_P2;Temp;Humidity;BMP_temperature;BMP_pressure;BME280_temperature;BME280_humidity;BME280_pressure;Samples;Min_cycle;Max_cycle;Signal;HPM_P1;HPM_P2
2021/05/02 00:01:53;;;;;;;11.13;9.93;;;8.70;99.90;;;;;;5071274;28;20454;-73
2021/05/02 00:04:19;;;;;;;10.07;9.00;;;8.60;99.90;;;;;;5071888;28;20254;-73
2021/05/02 00:06:45;;;;;;;10.03;8.97;;;8.50;99.90;;;;;;5089798;28;20209;-73
2021/05/02 00:09:10;;;;;;;10.93;9.33;;;8.50;99.90;;;;;;5086859;28;20182;-73
2021/05/02 00:11:36;;;;;;;12.83;11.23;;;8.40;99.90;;;;;;5069782;28;20965;-73
2021/05/02 00:14:03;;;;;;;14.70;11.17;;;8.50;99.90;;;;;;5083887;28;20623;-73
2021/05/02 00:16:29;;;;;;;17.30;12.30;;;8.50;99.90;;;;;;5075415;28;20523;-72
2021/05/02 00:18:55;;;;;;;12.67;11.37;;;8.40;99.90;;;;;;5079057;28;20801;-72
2021/05/02 00:21:20;;;;;;;13.50;11.23;;;8.40;99.90;;;;;;5077396;28;20428;-72
2021/05/02 00:23:46;;;;;;;13.83;10.80;;;8.40;99.90;;;;;;5071257;28;20186;-73
2021/05/02 00:26:12;;;;;;;16.90;11.37;;;8.40;99.90;;;;;;5071801;28;20289;-73
2021/05/02 00:28:44;;;;;;;13.83;10.80;;;8.30;99.90;;;;;;5069991;28;20989;-72
2021/05/02 00:31:12;;;;;;;13.80;12.37;;;8.30;99.90;;;;;;5069400;28;20254;-73
2021/05/02 00:33:37;;;;;;;19.57;12.20;;;8.30;99.90;;;;;;5073018;28;20480;-73
2021/05/02 00:36:04;;;;;;;15.13;12.60;;;8.20;99.90;;;;;;5063799;28;20474;-73
2021/05/02 00:38:30;;;;;;;15.40;12.03;;;8.20;99.90;;;;;;5052395;28;20181;-72
2021/05/02 00:41:03;;;;;;;14.70;12.20;;;8.10;99.90;;;;;;5074667;28;20427;-73
2021/05/02 00:44:05;;;;;;;16.40;11.67;;;8.00;99.90;;;;;;5057743;28;20987;-73
2021/05/02 00:46:46;;;;;;;12.30;10.97;;;8.00;99.90;;;;;;5084957;28;20807;-73
2021/05/02 00:49:29;;;;;;;16.60;12.00;;;7.90;99.90;;;;;;5064928;28;20436;-73
2021/05/02 00:52:03;;;;;;;15.70;12.53;;;7.90;99.90;;;;;;5080919;28;20432;-73
2021/05/02 00:54:49;;;;;;;14.63;11.70;;;7.90;99.90;;;;;;5071027;28;20435;-72
2021/05/02 00:57:24;;;;;;;14.87;12.60;;;7.90;99.90;;;;;;5073134;28;20439;-72
2021/05/02 01:00:01;;;;;;;17.17;12.27;;;7.90;99.90;;;;;;5072773;28;20511;-72
2021/05/02 01:02:29;;;;;;;15.37;11.87;;;7.80;99.90;;;;;;5081982;28;20459;-73
2021/05/02 01:05:00;;;;;;;14.57;11.63;;;7.90;99.90;;;;;;5086016;28;20473;-72
2021/05/02 01:07:34;;;;;;;20.40;13.20;;;7.80;99.90;;;;;;5081422;28;20769;-73
2021/05/02 01:10:07;;;;;;;15.27;11.87;;;7.80;99.90;;;;;;5073161;28;20523;-73
2021/05/02 01:12:44;;;;;;;16.60;12.67;;;7.70;99.90;;;;;;5077721;28;20424;-72
2021/05/02 01:15:12;;;;;;;13.50;11.77;;;7.80;99.90;;;;;;5072520;28;20463;-72
2021/05/02 01:17:42;;;;;;;13.80;12.30;;;7.80;99.90;;;;;;5074175;28;20447;-73
2021/05/02 01:20:10;;;;;;;19.27;13.83;;;7.70;99.90;;;;;;5075134;28;20459;-73
2021/05/02 01:22:37;;;;;;;16.40;13.67;;;7.70;99.90;;;;;;5068480;28;20436;-73
2021/05/02 01:25:04;;;;;;;16.47;14.20;;;7.60;99.90;;;;;;5072200;28;20971;-72
2021/05/02 01:27:31;;;;;;;18.00;13.50;;;7.60;99.90;;;;;;5054460;28;20972;-73
2021/05/02 01:29:59;;;;;;;18.83;13.57;;;7.60;99.90;;;;;;5081873;28;20506;-73
2021/05/02 01:32:26;;;;;;;17.83;12.90;;;7.50;99.90;;;;;;5088325;28;20434;-73
2021/05/02 01:34:53;;;;;;;15.03;12.67;;;7.40;99.90;;;;;;5092032;28;20471;-73
2021/05/02 01:37:19;;;;;;;14.33;12.83;;;7.40;99.90;;;;;;5073171;28;20787;-73
2021/05/02 01:39:46;;;;;;;17.60;14.07;;;7.30;99.90;;;;;;5073458;28;20477;-73
2021/05/02 01:42:12;;;;;;;15.57;11.60;;;7.20;99.90;;;;;;5080963;28;20460;-73
2021/05/02 01:44:37;;;;;;;16.03;13.50;;;7.20;99.90;;;;;;5078366;28;20548;-73
2021/05/02 01:47:10;;;;;;;19.13;12.93;;;7.20;99.90;;;;;;5088089;28;20185;-73
2021/05/02 01:49:42;;;;;;;15.00;13.50;;;7.20;99.90;;;;;;5064874;28;20178;-73
2021/05/02 01:52:08;;;;;;;17.50;13.70;;;7.20;99.90;;;;;;5086437;28;20452;-73
2021/05/02 01:54:35;;;;;;;17.90;14.87;;;7.30;99.90;;;;;;5073416;28;20569;-73
2021/05/02 01:57:01;;;;;;;19.13;12.87;;;7.30;99.90;;;;;;5054483;28;20816;-73
2021/05/02 01:59:27;;;;;;;17.03;14.00;;;7.30;99.90;;;;;;5071109;28;20486;-72
2021/05/02 02:01:53;;;;;;;20.07;14.27;;;7.30;99.90;;;;;;5068628;28;20593;-72
2021/05/02 02:04:21;;;;;;;18.60;15.43;;;7.30;99.90;;;;;;5081829;28;20527;-72
2021/05/02 02:06:48;;;;;;;17.70;14.40;;;7.30;99.90;;;;;;5078209;28;20212;-73
2021/05/02 02:09:13;;;;;;;20.17;16.50;;;7.30;99.90;;;;;;5073440;28;20930;-72
2021/05/02 02:11:39;;;;;;;20.37;16.90;;;7.30;99.90;;;;;;5089823;28;20427;-72
2021/05/02 02:14:04;;;;;;;22.67;15.00;;;7.30;99.90;;;;;;5080708;28;20194;-72
2021/05/02 02:16:30;;;;;;;25.27;17.20;;;7.40;99.90;;;;;;5075619;28;20265;-73
2021/05/02 02:18:56;;;;;;;20.93;15.30;;;7.40;99.90;;;;;;5082944;28;20181;-72
2021/05/02 02:21:23;;;;;;;22.50;15.50;;;7.30;99.90;;;;;;5082789;28;20170;-72
2021/05/02 02:23:55;;;;;;;19.67;15.93;;;7.40;99.90;;;;;;5083504;28;20185;-73
2021/05/02 02:26:35;;;;;;;20.47;15.40;;;7.40;99.90;;;;;;5071667;28;20884;-73
2021/05/02 02:29:02;;;;;;;17.00;14.60;;;7.30;99.90;;;;;;5071842;28;20880;-73
2021/05/02 02:31:33;;;;;;;19.30;15.30;;;7.30;99.90;;;;;;5076765;28;20822;-73
2021/05/02 02:33:59;;;;;;;20.30;15.60;;;7.20;99.90;;;;;;5071615;28;20433;-73
2021/05/02 02:36:25;;;;;;;19.43;15.47;;;7.30;99.90;;;;;;5053911;28;20433;-73
2021/05/02 02:38:51;;;;;;;20.93;15.90;;;7.30;99.90;;;;;;5072389;28;20822;-73
2021/05/02 02:41:17;;;;;;;22.77;17.50;;;7.30;99.90;;;;;;5057607;28;20175;-73
2021/05/02 02:43:55;;;;;;;21.53;17.30;;;7.30;99.90;;;;;;5067651;28;20871;-73
2021/05/02 02:46:22;;;;;;;25.57;16.70;;;7.40;99.90;;;;;;5075099;28;20452;-73
2021/05/02 02:48:56;;;;;;;19.73;16.00;;;7.40;99.90;;;;;;5086372;28;20523;-73
2021/05/02 02:51:26;;;;;;;25.17;15.23;;;7.40;99.90;;;;;;5078389;28;20439;-73
2021/05/02 02:53:53;;;;;;;19.20;16.40;;;7.50;99.90;;;;;;5082448;28;20529;-73
2021/05/02 02:56:22;;;;;;;30.27;18.20;;;7.50;99.90;;;;;;5069468;28;20423;-73
2021/05/02 02:59:15;;;;;;;20.10;16.83;;;7.60;99.90;;;;;;5088525;28;20423;-73
2021/05/02 03:01:45;;;;;;;20.87;16.47;;;7.50;99.90;;;;;;5048071;28;20488;-73
2021/05/02 03:04:13;;;;;;;25.93;16.87;;;7.60;99.90;;;;;;5072557;28;20520;-73
2021/05/02 03:06:40;;;;;;;22.90;16.37;;;7.60;99.90;;;;;;5058287;28;20538;-73
2021/05/02 03:09:07;;;;;;;22.53;18.60;;;7.60;99.90;;;;;;5073052;28;20416;-72
2021/05/02 03:11:33;;;;;;;25.80;19.20;;;7.60;99.90;;;;;;5071624;28;20477;-72
2021/05/02 03:13:59;;;;;;;28.00;18.93;;;7.60;99.90;;;;;;5060560;28;20476;-73
2021/05/02 03:16:28;;;;;;;25.30;19.47;;;7.50;99.90;;;;;;5090236;28;20459;-72
2021/05/02 03:19:04;;;;;;;23.03;17.70;;;7.60;99.90;;;;;;5074257;28;20173;-73
2021/05/02 03:21:46;;;;;;;25.40;18.40;;;7.60;99.90;;;;;;5083833;28;20508;-72
2021/05/02 03:24:14;;;;;;;25.50;19.53;;;7.60;99.90;;;;;;5085556;28;20439;-72
2021/05/02 03:26:41;;;;;;;27.33;20.00;;;7.60;99.90;;;;;;5071880;28;20960;-72
2021/05/02 03:29:11;;;;;;;24.73;19.73;;;7.60;99.90;;;;;;5078912;28;21026;-72
2021/05/02 03:31:38;;;;;;;23.03;19.90;;;7.60;99.90;;;;;;5073752;28;20436;-72
2021/05/02 03:34:09;;;;;;;25.23;19.43;;;7.70;99.90;;;;;;5080755;28;20948;-73
2021/05/02 03:36:56;;;;;;;26.57;20.40;;;7.60;99.90;;;;;;5071211;28;20473;-73
2021/05/02 03:39:22;;;;;;;26.83;18.10;;;7.60;99.90;;;;;;5085695;28;20499;-73
2021/05/02 03:41:47;;;;;;;24.97;18.93;;;7.60;99.90;;;;;;5077599;28;20952;-73
2021/05/02 03:44:13;;;;;;;23.87;17.80;;;7.70;99.90;;;;;;5072273;28;20659;-73
2021/05/02 03:46:38;;;;;;;29.03;19.47;;;7.70;99.90;;;;;;5069488;28;20204;-73
2021/05/02 03:49:06;;;;;;;23.37;18.23;;;7.70;99.90;;;;;;5070404;28;20219;-73
2021/05/02 03:51:34;;;;;;;30.33;19.00;;;7.70;99.90;;;;;;5071017;28;20162;-73
2021/05/02 03:54:00;;;;;;;26.57;19.00;;;7.80;99.90;;;;;;5071471;28;20520;-73
2021/05/02 03:56:39;;;;;;;24.30;20.03;;;7.70;99.90;;;;;;5062004;28;20421;-73
2021/05/02 03:59:16;;;;;;;28.17;18.20;;;7.80;99.90;;;;;;5052201;28;20424;-73
2021/05/02 04:01:58;;;;;;;22.70;18.50;;;7.80;99.90;;;;;;5053269;28;20478;-73
2021/05/02 04:04:30;;;;;;;23.43;17.90;;;7.80;99.90;;;;;;5071596;28;20447;-73
2021/05/02 04:07:02;;;;;;;24.37;18.27;;;7.70;99.90;;;;;;5071269;28;20412;-73
2021/05/02 04:09:28;;;;;;;28.10;19.47;;;7.70;99.90;;;;;;5071283;28;20439;-73
2021/05/02 04:11:54;;;;;;;27.90;18.27;;;7.70;99.90;;;;;;5065759;28;20417;-73
2021/05/02 04:14:20;;;;;;;21.33;16.27;;;7.70;99.90;;;;;;5067741;28;20436;-72
2021/05/02 04:17:01;;;;;;;26.43;19.00;;;7.80;99.90;;;;;;5071115;28;20427;-73
2021/05/02 04:19:27;;;;;;;25.60;20.30;;;7.80;99.90;;;;;;5064299;28;20533;-73
2021/05/02 04:21:54;;;;;;;23.90;18.23;;;7.70;99.90;;;;;;5071085;28;21168;-73
2021/05/02 04:24:20;;;;;;;29.67;18.43;;;7.70;99.90;;;;;;5070862;28;20456;-73
2021/05/02 04:26:48;;;;;;;28.07;19.00;;;7.70;99.90;;;;;;5070734;28;20463;-73
2021/05/02 04:29:13;;;;;;;24.27;17.60;;;7.70;99.90;;;;;;5071041;28;20413;-73
2021/05/02 04:31:39;;;;;;;22.90;17.20;;;7.70;99.90;;;;;;5070392;28;20838;-73
2021/05/02 04:34:06;;;;;;;27.10;20.03;;;7.80;99.90;;;;;;5074034;28;20208;-72
2021/05/02 04:36:32;;;;;;;24.20;17.70;;;7.80;99.90;;;;;;5075000;28;20423;-72
2021/05/02 04:38:58;;;;;;;23.10;17.83;;;7.80;99.90;;;;;;5074771;28;20412;-72
2021/05/02 04:41:24;;;;;;;23.07;18.43;;;7.90;99.90;;;;;;5074672;28;20841;-72
2021/05/02 04:43:51;;;;;;;23.27;18.70;;;7.80;99.90;;;;;;5074302;28;20860;-73
2021/05/02 04:46:17;;;;;;;18.97;15.43;;;7.90;99.90;;;;;;5074163;28;20816;-73
2021/05/02 04:48:43;;;;;;;24.00;16.00;;;7.90;99.90;;;;;;5074399;28;20416;-73
2021/05/02 04:51:10;;;;;;;22.33;14.40;;;7.90;99.90;;;;;;5074334;28;20453;-73
2021/05/02 04:53:36;;;;;;;15.97;14.17;;;7.90;99.90;;;;;;5074668;28;20432;-73
2021/05/02 04:56:02;;;;;;;22.97;15.33;;;7.90;99.90;;;;;;5073939;28;20407;-73
2021/05/02 04:58:28;;;;;;;15.23;13.07;;;7.90;99.90;;;;;;5056858;28;20185;-73
2021/05/02 05:00:53;;;;;;;16.23;12.50;;;7.90;99.90;;;;;;5074193;28;20416;-74
2021/05/02 05:03:19;;;;;;;16.10;12.17;;;7.90;99.90;;;;;;5075104;28;20197;-74
2021/05/02 05:05:45;;;;;;;19.77;12.73;;;7.90;99.90;;;;;;5064047;28;20277;-73
2021/05/02 05:08:11;;;;;;;14.77;11.97;;;8.00;99.90;;;;;;5081815;28;20460;-73
2021/05/02 05:10:37;;;;;;;15.90;12.33;;;8.00;99.90;;;;;;5081597;28;20162;-73
2021/05/02 05:13:03;;;;;;;16.60;12.50;;;8.10;99.90;;;;;;5071570;28;20448;-73
2021/05/02 05:15:28;;;;;;;14.73;12.10;;;8.20;99.90;;;;;;5090865;28;20248;-73
2021/05/02 05:17:54;;;;;;;14.50;11.40;;;8.30;99.90;;;;;;5083682;28;21032;-73
2021/05/02 05:20:20;;;;;;;19.83;11.90;;;8.30;99.90;;;;;;5074010;28;20194;-73
2021/05/02 05:22:46;;;;;;;15.07;10.03;;;8.30;99.90;;;;;;5079529;28;20178;-73
2021/05/02 05:25:11;;;;;;;16.50;10.40;;;8.40;99.90;;;;;;5089727;28;20247;-73
2021/05/02 05:27:37;;;;;;;13.03;9.40;;;8.40;99.90;;;;;;5084665;28;20464;-73
2021/05/02 05:30:04;;;;;;;14.27;9.40;;;8.20;99.90;;;;;;5073615;28;20566;-73
2021/05/02 05:32:29;;;;;;;17.40;9.63;;;8.30;99.90;;;;;;5073549;28;20573;-73
2021/05/02 05:34:55;;;;;;;13.43;8.60;;;8.30;99.90;;;;;;5085049;28;20459;-73
2021/05/02 05:37:20;;;;;;;10.57;8.63;;;8.20;99.90;;;;;;5077331;28;20212;-73
2021/05/02 05:39:46;;;;;;;10.87;6.00;;;8.30;99.90;;;;;;5080566;28;20169;-73
2021/05/02 05:42:11;;;;;;;8.70;7.07;;;8.30;99.90;;;;;;5077434;28;20182;-73
2021/05/02 05:44:37;;;;;;;9.70;7.50;;;8.40;99.90;;;;;;5084908;28;20185;-73
2021/05/02 05:47:02;;;;;;;9.20;7.80;;;8.30;99.90;;;;;;5081131;28;20225;-73
2021/05/02 05:49:28;;;;;;;10.60;7.90;;;8.40;99.90;;;;;;5078363;28;20171;-73
2021/05/02 05:51:54;;;;;;;7.67;6.87;;;8.40;99.90;;;;;;5065995;28;20177;-73
2021/05/02 05:54:20;;;;;;;10.90;8.20;;;8.50;99.90;;;;;;5072288;28;20735;-74
2021/05/02 05:56:47;;;;;;;10.37;7.93;;;8.60;99.90;;;;;;5073525;28;20170;-73
2021/05/02 05:59:12;;;;;;;10.53;7.80;;;8.70;99.90;;;;;;5080364;28;20931;-73
2021/05/02 06:01:39;;;;;;;12.07;8.10;;;8.60;99.90;;;;;;5089455;28;20419;-73
2021/05/02 06:04:04;;;;;;;11.63;8.13;;;8.40;99.90;;;;;;5078215;28;20658;-73
2021/05/02 06:06:35;;;;;;;14.10;8.20;;;8.40;99.90;;;;;;5090925;28;20459;-73
2021/05/02 06:09:07;;;;;;;13.40;7.30;;;8.40;99.90;;;;;;5077674;28;20172;-73
2021/05/02 06:11:34;;;;;;;10.63;7.80;;;8.40;99.90;;;;;;5084380;28;20522;-73
2021/05/02 06:14:00;;;;;;;12.87;7.60;;;8.40;99.90;;;;;;5056077;28;20444;-73
2021/05/02 06:16:26;;;;;;;11.10;8.70;;;8.40;99.90;;;;;;5073044;28;20433;-73
2021/05/02 06:18:53;;;;;;;9.23;6.60;;;8.40;99.90;;;;;;5079893;28;20433;-73
2021/05/02 06:21:20;;;;;;;10.53;8.00;;;8.40;99.90;;;;;;5059938;28;20439;-73
2021/05/02 06:23:47;;;;;;;10.30;6.97;;;8.40;99.90;;;;;;5078397;28;20929;-73
2021/05/02 06:26:13;;;;;;;12.53;7.30;;;8.50;99.90;;;;;;5074731;28;20554;-73
2021/05/02 06:28:40;;;;;;;14.30;7.27;;;8.40;99.90;;;;;;5086538;28;20427;-72
2021/05/02 06:31:06;;;;;;;12.07;8.23;;;8.40;99.90;;;;;;5080058;28;20765;-73
2021/05/02 06:33:31;;;;;;;9.03;6.47;;;8.40;99.90;;;;;;5084380;28;20447;-73
2021/05/02 06:35:57;;;;;;;12.97;7.73;;;8.30;99.90;;;;;;5088726;28;20475;-73
2021/05/02 06:38:22;;;;;;;7.93;6.07;;;8.40;99.90;;;;;;5079095;28;20260;-73
2021/05/02 06:40:48;;;;;;;7.70;6.90;;;8.50;99.90;;;;;;5072434;28;20170;-73
2021/05/02 06:43:14;;;;;;;10.17;7.53;;;8.40;99.90;;;;;;5070570;28;20193;-73
2021/05/02 06:45:39;;;;;;;8.50;6.50;;;8.50;99.90;;;;;;5072399;28;20233;-73
2021/05/02 06:48:05;;;;;;;10.40;6.70;;;8.50;99.90;;;;;;5078027;28;20169;-73
2021/05/02 06:50:31;;;;;;;7.30;4.77;;;8.70;99.90;;;;;;5083475;28;20782;-73
2021/05/02 06:52:57;;;;;;;8.90;4.90;;;8.80;99.90;;;;;;5081443;28;20165;-73
2021/05/02 06:55:22;;;;;;;7.63;5.47;;;8.90;99.90;;;;;;5077748;28;20481;-73
2021/05/02 06:57:48;;;;;;;7.90;5.30;;;9.10;99.90;;;;;;5072264;28;20253;-74
2021/05/02 07:00:14;;;;;;;9.87;5.40;;;9.30;99.90;;;;;;5073005;28;20223;-74
2021/05/02 07:02:39;;;;;;;7.87;5.30;;;9.50;99.90;;;;;;5082947;28;20709;-74
2021/05/02 07:05:06;;;;;;;13.17;5.20;;;9.70;99.90;;;;;;5082324;28;20529;-74
2021/05/02 07:07:31;;;;;;;12.03;5.13;;;10.10;99.90;;;;;;5086153;28;20166;-74
2021/05/02 07:09:57;;;;;;;5.17;4.37;;;10.20;99.90;;;;;;5074862;28;20421;-74
2021/05/02 07:12:24;;;;;;;5.23;4.40;;;10.60;99.90;;;;;;5074451;28;20190;-74
2021/05/02 07:14:49;;;;;;;9.13;5.10;;;10.90;99.90;;;;;;5076896;28;20214;-74
2021/05/02 07:17:16;;;;;;;9.40;3.80;;;11.10;99.90;;;;;;5078590;28;20442;-74
2021/05/02 07:19:41;;;;;;;6.07;4.47;;;11.50;99.90;;;;;;5073459;28;20506;-74
2021/05/02 07:22:07;;;;;;;18.47;4.33;;;11.70;99.90;;;;;;5071834;28;20427;-74
2021/05/02 07:24:33;;;;;;;5.80;3.73;;;11.90;99.90;;;;;;5076967;28;20224;-74
2021/05/02 07:26:59;;;;;;;8.77;4.10;;;12.10;99.90;;;;;;5058031;28;20458;-74
2021/05/02 07:29:25;;;;;;;7.97;4.50;;;12.20;99.90;;;;;;5079551;28;20172;-75
2021/05/02 07:31:50;;;;;;;7.07;4.27;;;12.30;99.90;;;;;;5071903;28;20420;-75
2021/05/02 07:34:16;;;;;;;5.70;3.90;;;13.00;99.90;;;;;;5077035;28;20205;-75
2021/05/02 07:36:42;;;;;;;5.07;3.47;;;14.00;99.90;;;;;;5072400;28;20659;-75
2021/05/02 07:39:09;;;;;;;10.17;4.67;;;13.90;99.90;;;;;;5081855;28;20431;-75
2021/05/02 07:41:34;;;;;;;6.47;3.10;;;13.70;99.90;;;;;;5087804;28;20184;-75
2021/05/02 07:44:00;;;;;;;3.53;3.00;;;13.40;99.90;;;;;;5084057;28;20447;-75
2021/05/02 07:46:26;;;;;;;4.50;2.70;;;13.00;99.90;;;;;;5087753;28;20200;-75
2021/05/02 07:48:51;;;;;;;5.37;2.37;;;12.80;99.90;;;;;;5079618;28;20202;-75
2021/05/02 07:51:17;;;;;;;7.13;3.00;;;13.00;99.90;;;;;;5071237;28;20206;-74
2021/05/02 07:53:43;;;;;;;4.33;2.90;;;13.20;99.90;;;;;;5074644;28;20203;-74
2021/05/02 07:56:09;;;;;;;20.00;4.10;;;13.00;99.90;;;;;;5074785;28;20424;-75
2021/05/02 07:58:34;;;;;;;5.00;3.13;;;12.90;99.90;;;;;;5079755;28;20231;-75
2021/05/02 08:01:00;;;;;;;4.63;3.63;;;12.70;99.90;;;;;;5084273;28;20184;-75
2021/05/02 08:03:25;;;;;;;4.77;3.07;;;13.40;99.90;;;;;;5079428;28;20232;-76
2021/05/02 08:05:51;;;;;;;7.00;4.27;;;14.20;99.90;;;;;;5075183;28;20202;-76
2021/05/02 08:08:17;;;;;;;4.40;4.00;;;14.80;99.90;;;;;;5085711;28;20170;-76
2021/05/02 08:10:43;;;;;;;7.33;3.77;;;15.70;99.90;;;;;;5082467;28;20209;-75
2021/05/02 08:13:08;;;;;;;7.93;3.87;;;15.10;99.90;;;;;;5078687;28;20623;-76
2021/05/02 08:15:34;;;;;;;6.00;3.90;;;14.60;99.90;;;;;;5080678;28;20470;-73
2021/05/02 08:18:01;;;;;;;6.27;4.80;;;13.90;99.90;;;;;;5092138;28;20711;-73
2021/05/02 08:20:27;;;;;;;4.30;3.10;;;13.40;99.90;;;;;;5070498;28;20650;-73
2021/05/02 08:22:52;;;;;;;5.63;3.53;;;13.00;99.90;;;;;;5083181;28;20522;-73
2021/05/02 08:25:19;;;;;;;8.93;3.80;;;12.90;99.90;;;;;;5085008;28;20194;-73
2021/05/02 08:27:47;;;;;;;4.10;3.47;;;13.00;99.90;;;;;;5083670;28;20420;-74
2021/05/02 08:30:13;;;;;;;7.27;3.00;;;14.10;99.90;;;;;;5060546;28;20424;-74
2021/05/02 08:32:38;;;;;;;4.43;2.50;;;14.90;99.90;;;;;;5069623;28;20436;-74
2021/05/02 08:35:05;;;;;;;7.00;3.23;;;14.80;99.90;;;;;;5087132;28;20472;-74
2021/05/02 08:37:31;;;;;;;5.60;4.03;;;14.20;99.90;;;;;;5075042;28;20181;-73
2021/05/02 08:39:56;;;;;;;9.03;3.40;;;13.70;99.90;;;;;;5073999;28;20439;-73
2021/05/02 08:42:22;;;;;;;11.57;6.87;;;13.30;99.90;;;;;;5091317;28;20195;-73
2021/05/02 08:44:48;;;;;;;7.80;3.13;;;13.00;99.90;;;;;;5086829;28;20205;-73
2021/05/02 08:47:14;;;;;;;4.17;2.97;;;12.70;99.90;;;;;;5062875;28;20186;-73
2021/05/02 08:49:44;;;;;;;11.80;2.60;;;12.20;99.90;;;;;;5074181;28;20181;-73
2021/05/02 08:52:10;;;;;;;6.10;2.60;;;12.10;99.90;;;;;;5074662;28;20443;-73
2021/05/02 08:54:36;;;;;;;4.63;2.40;;;12.40;99.90;;;;;;5081109;28;20461;-73
2021/05/02 08:57:03;;;;;;;5.43;2.43;;;12.70;99.90;;;;;;5074987;28;20428;-73
2021/05/02 08:59:28;;;;;;;2.33;2.13;;;13.30;99.90;;;;;;5073977;28;20432;-73
2021/05/02 09:01:58;;;;;;;5.53;2.80;;;14.10;99.90;;;;;;5075166;28;20866;-73
2021/05/02 09:04:24;;;;;;;5.70;2.90;;;14.20;99.90;;;;;;5075677;28;20899;-73
2021/05/02 09:06:50;;;;;;;4.47;3.20;;;14.10;99.40;;;;;;5080654;28;20506;-72
2021/05/02 09:09:16;;;;;;;6.63;3.80;;;13.90;99.80;;;;;;5073815;28;20855;-72
2021/05/02 09:11:45;;;;;;;6.47;4.07;;;13.40;99.90;;;;;;5057836;28;20651;-72
2021/05/02 09:14:16;;;;;;;11.97;5.03;;;13.10;99.90;;;;;;5087845;28;20459;-73
2021/05/02 09:17:14;;;;;;;6.60;3.80;;;12.80;99.90;;;;;;5073551;28;20439;-74
2021/05/02 09:19:48;;;;;;;5.13;3.13;;;12.30;99.90;;;;;;5064922;28;20938;-73
2021/05/02 09:22:15;;;;;;;5.57;3.80;;;12.20;99.90;;;;;;5072621;28;20932;-75
2021/05/02 09:24:42;;;;;;;5.70;4.67;;;12.90;99.90;;;;;;5084111;28;20545;-76
2021/05/02 09:27:11;;;;;;;14.07;3.43;;;13.90;99.90;;;;;;5073287;28;20424;-76
2021/05/02 09:29:38;;;;;;;5.77;3.63;;;14.90;99.90;;;;;;5075475;28;20428;-76
2021/05/02 09:32:06;;;;;;;9.33;4.20;;;15.40;99.90;;;;;;5088262;28;20830;-76
2021/05/02 09:34:32;;;;;;;8.60;3.40;;;15.50;96.30;;;;;;5079608;28;20459;-73
2021/05/02 09:37:05;;;;;;;9.23;4.03;;;15.20;94.40;;;;;;5077976;28;20432;-75
2021/05/02 09:39:53;;;;;;;6.03;3.40;;;14.70;92.40;;;;;;5073297;28;20427;-75
2021/05/02 09:42:38;;;;;;;3.80;3.40;;;13.80;94.30;;;;;;5066662;28;20519;-74
2021/05/02 09:45:08;;;;;;;4.53;2.60;;;13.70;96.70;;;;;;5089166;28;20467;-75
2021/05/02 09:47:38;;;;;;;7.63;3.40;;;13.60;99.90;;;;;;5075242;28;20447;-75
2021/05/02 09:50:23;;;;;;;3.80;2.87;;;14.10;99.90;;;;;;5073396;28;20536;-74
2021/05/02 09:52:56;;;;;;;10.43;3.33;;;14.20;99.60;;;;;;5069966;28;20470;-74
2021/05/02 09:55:39;;;;;;;4.70;2.67;;;14.40;98.70;;;;;;5069288;28;20431;-76
2021/05/02 09:58:16;;;;;;;5.50;3.70;;;13.80;94.40;;;;;;5084000;28;20431;-75
2021/05/02 10:00:43;;;;;;;3.53;3.10;;;13.40;96.60;;;;;;5061930;28;20445;-73
2021/05/02 10:03:16;;;;;;;2.63;2.40;;;13.40;98.40;;;;;;5074403;28;20446;-74
2021/05/02 10:06:08;;;;;;;9.73;3.83;;;13.30;98.80;;;;;;5073084;28;20926;-74
2021/05/02 10:08:36;;;;;;;5.90;2.80;;;13.00;99.70;;;;;;5062971;28;20435;-75
2021/05/02 10:11:04;;;;;;;3.60;2.63;;;13.40;99.90;;;;;;5083706;28;20435;-75
2021/05/02 10:13:29;;;;;;;6.77;3.63;;;14.30;99.90;;;;;;5080316;28;20460;-75
2021/05/02 10:15:57;;;;;;;3.77;2.70;;;14.50;92.40;;;;;;5083866;28;20997;-74
2021/05/02 10:18:23;;;;;;;3.60;3.30;;;14.20;90.40;;;;;;5083359;28;20189;-73
2021/05/02 10:20:49;;;;;;;3.70;2.50;;;14.20;89.50;;;;;;5066790;28;20427;-74
2021/05/02 10:23:16;;;;;;;8.60;3.37;;;14.10;88.30;;;;;;5080638;28;20667;-73
2021/05/02 10:25:43;;;;;;;4.40;2.47;;;13.90;91.30;;;;;;5074673;28;20496;-73
2021/05/02 10:28:09;;;;;;;6.50;3.07;;;14.00;92.90;;;;;;5073530;28;20777;-76
2021/05/02 10:30:39;;;;;;;3.97;2.77;;;14.10;90.30;;;;;;5075892;28;20971;-76
2021/05/02 10:33:09;;;;;;;2.57;2.13;;;14.20;87.60;;;;;;5068642;28;21018;-76
2021/05/02 10:35:53;;;;;;;4.87;2.57;;;14.50;85.50;;;;;;5059168;28;20482;-77
2021/05/02 10:38:42;;;;;;;5.13;3.40;;;14.80;86.20;;;;;;5079695;28;20431;-76
2021/05/02 10:41:24;;;;;;;7.13;2.80;;;14.40;83.00;;;;;;5070521;28;20431;-77
2021/05/02 10:43:50;;;;;;;10.97;6.17;;;14.10;83.90;;;;;;5065642;28;20505;-77
2021/05/02 10:46:57;;;;;;;3.63;2.50;;;14.10;83.50;;;;;;5051394;28;20460;-78
2021/05/02 10:53:14;;;;;;;8.80;2.40;;;14.00;77.80;;;;;;5076217;28;20412;-78
2021/05/02 10:56:30;;;;;;;3.83;2.90;;;13.90;78.10;;;;;;4992608;28;20518;-79
2021/05/02 10:59:01;;;;;;;2.90;2.40;;;13.90;80.10;;;;;;5022884;28;20429;-79
2021/05/02 11:01:30;;;;;;;3.93;2.40;;;13.70;80.80;;;;;;5069725;28;20416;-79
2021/05/02 11:04:00;;;;;;;3.83;2.70;;;13.90;85.50;;;;;;5058420;28;20452;-79
2021/05/02 11:07:08;;;;;;;2.93;2.63;;;14.10;88.90;;;;;;5059711;28;20513;-79
2021/05/02 11:09:54;;;;;;;2.90;2.70;;;14.40;81.40;;;;;;5049813;28;20425;-79
2021/05/02 11:12:27;;;;;;;5.50;2.77;;;14.60;81.00;;;;;;5053402;28;21063;-78
2021/05/02 11:14:52;;;;;;;8.63;3.47;;;14.80;79.90;;;;;;5073786;28;20424;-78
2021/05/02 11:17:19;;;;;;;5.30;2.93;;;14.70;77.60;;;;;;5055849;28;20416;-79
2021/05/02 11:19:46;;;;;;;2.90;2.40;;;15.00;78.20;;;;;;5054991;28;20665;-79
2021/05/02 11:22:12;;;;;;;3.57;2.63;;;15.40;72.00;;;;;;5056162;28;20409;-78
2021/05/02 11:32:29;;;;;;;4.53;2.60;;;14.20;73.80;;;;;;5072721;28;20429;-79
2021/05/02 11:35:00;;;;;;;5.13;2.97;;;13.90;76.10;;;;;;5073180;28;20450;-77
2021/05/02 11:37:44;;;;;;;7.53;2.90;;;13.60;78.80;;;;;;5054995;28;20417;-78
2021/05/02 11:40:25;;;;;;;6.83;2.93;;;13.50;80.30;;;;;;5072043;28;20424;-78
2021/05/02 11:42:56;;;;;;;4.57;3.00;;;13.30;83.70;;;;;;5054027;28;20432;-78
2021/05/02 11:45:24;;;;;;;7.13;2.60;;;13.10;88.30;;;;;;5072196;28;20854;-78
2021/05/02 11:47:49;;;;;;;7.80;3.00;;;13.20;88.10;;;;;;5072272;28;20940;-78
2021/05/02 11:50:16;;;;;;;5.53;2.80;;;13.10;88.30;;;;;;5072358;28;20424;-78
2021/05/02 11:52:50;;;;;;;4.70;2.87;;;13.20;90.50;;;;;;5054551;28;20182;-78
2021/05/02 11:55:33;;;;;;;3.03;2.73;;;13.20;89.40;;;;;;5072552;28;20815;-78
2021/05/02 11:58:23;;;;;;;6.53;2.17;;;12.90;89.30;;;;;;5054823;28;20811;-78
2021/05/02 12:00:50;;;;;;;2.17;1.97;;;12.70;80.30;;;;;;5054190;28;20486;-79
2021/05/02 12:03:31;;;;;;;3.50;1.80;;;12.70;81.30;;;;;;5054370;28;20444;-78
2021/05/02 12:05:57;;;;;;;3.03;2.47;;;12.90;81.00;;;;;;5071840;28;20462;-78
2021/05/02 12:08:25;;;;;;;3.63;2.47;;;13.00;83.20;;;;;;5072714;28;20416;-78
2021/05/02 12:10:52;;;;;;;4.50;2.93;;;13.30;84.50;;;;;;5072889;28;20169;-78
2021/05/02 12:13:33;;;;;;;10.10;3.77;;;13.50;86.40;;;;;;5072909;28;20428;-78
2021/05/02 12:16:09;;;;;;;3.00;2.67;;;13.70;89.20;;;;;;5054887;28;20424;-78
2021/05/02 12:19:02;;;;;;;3.80;2.20;;;13.90;86.30;;;;;;5055432;28;20420;-78
2021/05/02 12:21:35;;;;;;;4.60;3.00;;;14.10;85.70;;;;;;5054715;28;20417;-79
2021/05/02 12:24:13;;;;;;;8.93;2.30;;;14.00;84.80;;;;;;5073055;28;20452;-79
2021/05/02 12:26:52;;;;;;;2.73;2.50;;;14.00;83.00;;;;;;5054690;28;20841;-78
2021/05/02 12:29:37;;;;;;;3.20;2.43;;;14.00;81.90;;;;;;5072094;28;20755;-77
2021/05/02 12:32:08;;;;;;;4.13;2.60;;;14.00;80.20;;;;;;5072043;28;20433;-78
2021/05/02 12:34:38;;;;;;;3.40;2.30;;;13.90;75.80;;;;;;5071662;28;20827;-78
2021/05/02 12:37:14;;;;;;;4.67;2.20;;;13.90;77.20;;;;;;5071428;28;20921;-78
2021/05/02 12:39:42;;;;;;;5.47;2.20;;;13.90;80.10;;;;;;5053703;28;20428;-79
2021/05/02 12:42:09;;;;;;;2.27;1.97;;;13.90;78.90;;;;;;5073166;28;20491;-78
2021/05/02 12:44:37;;;;;;;4.60;2.80;;;13.90;75.30;;;;;;5073318;28;20481;-78
2021/05/02 12:47:20;;;;;;;3.73;2.67;;;13.90;75.70;;;;;;5055045;28;20456;-78
2021/05/02 12:49:55;;;;;;;5.97;2.60;;;14.00;80.20;;;;;;5054935;28;20416;-79
2021/05/02 12:52:27;;;;;;;3.67;2.30;;;14.20;79.50;;;;;;5073303;28;20404;-77
2021/05/02 12:54:53;;;;;;;6.40;2.50;;;14.20;78.20;;;;;;5075052;28;20432;-78
2021/05/02 12:57:26;;;;;;;2.87;1.93;;;14.60;79.70;;;;;;5058299;28;20771;-78
2021/05/02 13:02:33;;;;;;;2.07;1.90;;;15.10;73.10;;;;;;5077307;28;20439;-78
2021/05/02 13:05:11;;;;;;;3.50;2.43;;;15.00;70.80;;;;;;5058675;28;20436;-77
2021/05/02 13:07:45;;;;;;;3.83;2.90;;;14.80;71.40;;;;;;5076898;28;20484;-77
2021/05/02 13:10:23;;;;;;;5.47;2.17;;;14.90;75.30;;;;;;5058410;28;20491;-78